sensor_id;sensor_type;location;lat;lon;timestamp;P1;durP1;ratioP1;P2;durP2;ratioP2
16735;SDS011;17990;49.548;9.730;2022-07-29T00:01:31;2.43;;;1.53;;
16735;SDS011;17990;49.548;9.730;2022-07-29T00:03:58;6.37;;;1.50;;
16735;SDS011;17990;49.548;9.730;2022-07-29T00:06:25;3.20;;;1.40;;
16735;SDS011;17990;49.548;9.730;2022-07-29T00:08:52;4.57;;;1.40;;
16735;SDS011;17990;49.548;9.730;2022-07-29T00:11:19;5.20;;;1.40;;
16735;SDS011;17990;49.548;9.730;2022-07-29T00:13:46;7.73;;;1.40;;
16735;SDS011;17990;49.548;9.730;2022-07-29T00:16:14;6.30;;;1.60;;
16735;SDS011;17990;49.548;9.730;2022-07-29T00:18:41;3.57;;;1.30;;
16735;SDS011;17990;49.548;9.730;2022-07-29T00:21:08;4.33;;;1.57;;
16735;SDS011;17990;49.548;9.730;2022-07-29T00:23:35;4.43;;;1.60;;
16735;SDS011;17990;49.548;9.730;2022-07-29T00:26:02;4.43;;;1.60;;
16735;SDS011;17990;49.548;9.730;2022-07-29T00:28:28;4.93;;;1.73;;
16735;SDS011;17990;49.548;9.730;2022-07-29T00:30:55;5.93;;;1.73;;
16735;SDS011;17990;49.548;9.730;2022-07-29T00:33:24;4.07;;;1.50;;
16735;SDS011;17990;49.548;9.730;2022-07-29T00:35:50;2.63;;;1.60;;
16735;SDS011;17990;49.548;9.730;2022-07-29T00:38:17;4.63;;;1.63;;
16735;SDS011;17990;49.548;9.730;2022-07-29T00:40:46;4.10;;;1.67;;
16735;SDS011;17990;49.548;9.730;2022-07-29T00:43:14;3.63;;;1.70;;
16735;SDS011;17990;49.548;9.730;2022-07-29T00:45:41;6.80;;;1.80;;
16735;SDS011;17990;49.548;9.730;2022-07-29T00:48:09;2.80;;;1.47;;
16735;SDS011;17990;49.548;9.730;2022-07-29T00:50:37;7.87;;;1.67;;
16735;SDS011;17990;49.548;9.730;2022-07-29T00:53:05;4.83;;;1.67;;
16735;SDS011;17990;49.548;9.730;2022-07-29T00:55:33;4.80;;;1.73;;
16735;SDS011;17990;49.548;9.730;2022-07-29T00:58:00;6.17;;;1.93;;
16735;SDS011;17990;49.548;9.730;2022-07-29T01:00:28;3.87;;;1.70;;
16735;SDS011;17990;49.548;9.730;2022-07-29T01:02:55;3.37;;;1.57;;
16735;SDS011;17990;49.548;9.730;2022-07-29T01:05:23;4.80;;;1.93;;
16735;SDS011;17990;49.548;9.730;2022-07-29T01:07:54;5.27;;;1.70;;
16735;SDS011;17990;49.548;9.730;2022-07-29T01:10:23;5.17;;;1.73;;
16735;SDS011;17990;49.548;9.730;2022-07-29T01:12:51;5.87;;;2.13;;
16735;SDS011;17990;49.548;9.730;2022-07-29T01:15:21;5.20;;;2.30;;
16735;SDS011;17990;49.548;9.730;2022-07-29T01:17:50;3.33;;;1.83;;
16735;SDS011;17990;49.548;9.730;2022-07-29T01:20:26;2.53;;;1.60;;
16735;SDS011;17990;49.548;9.730;2022-07-29T01:29:20;3.63;;;1.60;;
16735;SDS011;17990;49.548;9.730;2022-07-29T01:31:54;4.93;;;1.70;;
16735;SDS011;17990;49.548;9.730;2022-07-29T01:34:25;3.37;;;1.80;;
16735;SDS011;17990;49.548;9.730;2022-07-29T01:37:07;6.63;;;1.93;;
16735;SDS011;17990;49.548;9.730;2022-07-29T01:39:42;3.97;;;1.83;;
16735;SDS011;17990;49.548;9.730;2022-07-29T01:42:14;2.00;;;1.50;;
16735;SDS011;17990;49.548;9.730;2022-07-29T01:44:50;4.10;;;1.73;;
16735;SDS011;17990;49.548;9.730;2022-07-29T01:47:25;6.60;;;1.70;;
16735;SDS011;17990;49.548;9.730;2022-07-29T01:49:58;3.33;;;1.53;;
16735;SDS011;17990;49.548;9.730;2022-07-29T01:52:27;2.60;;;1.80;;
16735;SDS011;17990;49.548;9.730;2022-07-29T01:55:02;4.13;;;2.00;;
16735;SDS011;17990;49.548;9.730;2022-07-29T01:57:36;2.27;;;1.67;;
16735;SDS011;17990;49.548;9.730;2022-07-29T02:00:08;4.27;;;1.97;;
16735;SDS011;17990;49.548;9.730;2022-07-29T02:02:37;4.70;;;1.60;;
16735;SDS011;17990;49.548;9.730;2022-07-29T02:05:10;6.43;;;2.10;;
16735;SDS011;17990;49.548;9.730;2022-07-29T02:07:42;5.33;;;2.10;;
16735;SDS011;17990;49.548;9.730;2022-07-29T02:10:11;3.50;;;2.00;;
16735;SDS011;17990;49.548;9.730;2022-07-29T02:12:39;3.60;;;2.17;;
16735;SDS011;17990;49.548;9.730;2022-07-29T02:15:10;2.67;;;1.80;;
16735;SDS011;17990;49.548;9.730;2022-07-29T02:17:39;4.87;;;2.37;;
16735;SDS011;17990;49.548;9.730;2022-07-29T02:20:09;5.60;;;2.03;;
16735;SDS011;17990;49.548;9.730;2022-07-29T02:22:37;6.47;;;2.27;;
16735;SDS011;17990;49.548;9.730;2022-07-29T02:25:06;6.57;;;2.37;;
16735;SDS011;17990;49.548;9.730;2022-07-29T02:27:35;5.03;;;2.20;;
16735;SDS011;17990;49.548;9.730;2022-07-29T02:30:06;4.63;;;2.23;;
16735;SDS011;17990;49.548;9.730;2022-07-29T02:32:37;3.80;;;2.10;;
16735;SDS011;17990;49.548;9.730;2022-07-29T02:35:08;5.70;;;2.20;;
16735;SDS011;17990;49.548;9.730;2022-07-29T02:37:36;3.93;;;2.00;;
16735;SDS011;17990;49.548;9.730;2022-07-29T02:40:03;7.27;;;2.77;;
16735;SDS011;17990;49.548;9.730;2022-07-29T02:42:33;4.07;;;2.20;;
16735;SDS011;17990;49.548;9.730;2022-07-29T02:45:02;5.37;;;2.20;;
16735;SDS011;17990;49.548;9.730;2022-07-29T02:47:33;7.30;;;2.50;;
16735;SDS011;17990;49.548;9.730;2022-07-29T02:50:06;4.17;;;1.90;;
16735;SDS011;17990;49.548;9.730;2022-07-29T02:52:39;3.67;;;1.90;;
16735;SDS011;17990;49.548;9.730;2022-07-29T02:55:11;4.20;;;1.90;;
16735;SDS011;17990;49.548;9.730;2022-07-29T02:57:44;5.47;;;2.17;;
16735;SDS011;17990;49.548;9.730;2022-07-29T03:00:17;4.83;;;2.30;;
16735;SDS011;17990;49.548;9.730;2022-07-29T03:02:45;4.07;;;2.37;;
16735;SDS011;17990;49.548;9.730;2022-07-29T03:05:19;4.50;;;2.00;;
16735;SDS011;17990;49.548;9.730;2022-07-29T03:07:47;4.30;;;2.10;;
16735;SDS011;17990;49.548;9.730;2022-07-29T03:10:19;3.53;;;2.00;;
16735;SDS011;17990;49.548;9.730;2022-07-29T03:12:47;4.40;;;2.40;;
16735;SDS011;17990;49.548;9.730;2022-07-29T03:15:14;4.67;;;2.20;;
16735;SDS011;17990;49.548;9.730;2022-07-29T03:17:42;3.10;;;2.30;;
16735;SDS011;17990;49.548;9.730;2022-07-29T03:20:11;5.20;;;2.07;;
16735;SDS011;17990;49.548;9.730;2022-07-29T03:22:40;5.97;;;2.27;;
16735;SDS011;17990;49.548;9.730;2022-07-29T03:25:08;4.93;;;2.10;;
16735;SDS011;17990;49.548;9.730;2022-07-29T03:27:36;3.70;;;2.10;;
16735;SDS011;17990;49.548;9.730;2022-07-29T03:30:03;4.83;;;2.20;;
16735;SDS011;17990;49.548;9.730;2022-07-29T03:32:32;3.77;;;2.10;;
16735;SDS011;17990;49.548;9.730;2022-07-29T03:34:59;4.90;;;2.13;;
16735;SDS011;17990;49.548;9.730;2022-07-29T03:37:27;3.47;;;2.40;;
16735;SDS011;17990;49.548;9.730;2022-07-29T03:39:55;4.03;;;2.20;;
16735;SDS011;17990;49.548;9.730;2022-07-29T03:42:24;6.63;;;2.90;;
16735;SDS011;17990;49.548;9.730;2022-07-29T03:44:57;3.90;;;2.30;;
16735;SDS011;17990;49.548;9.730;2022-07-29T03:47:28;3.30;;;2.13;;
16735;SDS011;17990;49.548;9.730;2022-07-29T03:49:56;6.07;;;2.60;;
16735;SDS011;17990;49.548;9.730;2022-07-29T03:52:31;4.77;;;2.33;;
16735;SDS011;17990;49.548;9.730;2022-07-29T03:54:58;6.23;;;2.60;;
16735;SDS011;17990;49.548;9.730;2022-07-29T03:57:27;4.17;;;2.27;;
16735;SDS011;17990;49.548;9.730;2022-07-29T03:59:56;5.67;;;2.13;;
16735;SDS011;17990;49.548;9.730;2022-07-29T04:02:24;6.07;;;2.47;;
16735;SDS011;17990;49.548;9.730;2022-07-29T04:04:52;8.27;;;2.47;;
16735;SDS011;17990;49.548;9.730;2022-07-29T04:07:19;4.63;;;2.33;;
16735;SDS011;17990;49.548;9.730;2022-07-29T04:09:47;5.80;;;3.43;;
16735;SDS011;17990;49.548;9.730;2022-07-29T04:12:14;8.03;;;2.93;;
16735;SDS011;17990;49.548;9.730;2022-07-29T04:14:41;8.97;;;4.37;;
16735;SDS011;17990;49.548;9.730;2022-07-29T04:17:08;5.50;;;3.03;;
16735;SDS011;17990;49.548;9.730;2022-07-29T04:19:34;5.83;;;3.17;;
16735;SDS011;17990;49.548;9.730;2022-07-29T04:22:01;10.57;;;3.17;;
16735;SDS011;17990;49.548;9.730;2022-07-29T04:24:29;9.30;;;3.20;;
16735;SDS011;17990;49.548;9.730;2022-07-29T04:26:57;6.33;;;3.37;;
16735;SDS011;17990;49.548;9.730;2022-07-29T04:29:24;13.27;;;3.50;;
16735;SDS011;17990;49.548;9.730;2022-07-29T04:31:51;5.27;;;3.10;;
16735;SDS011;17990;49.548;9.730;2022-07-29T04:34:17;5.40;;;3.10;;
16735;SDS011;17990;49.548;9.730;2022-07-29T04:36:44;7.43;;;3.10;;
16735;SDS011;17990;49.548;9.730;2022-07-29T04:39:11;5.83;;;2.93;;
16735;SDS011;17990;49.548;9.730;2022-07-29T04:41:38;6.97;;;3.40;;
16735;SDS011;17990;49.548;9.730;2022-07-29T04:44:06;7.47;;;3.20;;
16735;SDS011;17990;49.548;9.730;2022-07-29T04:46:33;6.80;;;3.20;;
16735;SDS011;17990;49.548;9.730;2022-07-29T04:49:00;30.33;;;3.60;;
16735;SDS011;17990;49.548;9.730;2022-07-29T04:51:28;10.67;;;3.77;;
16735;SDS011;17990;49.548;9.730;2022-07-29T04:53:55;5.23;;;3.27;;
16735;SDS011;17990;49.548;9.730;2022-07-29T04:56:21;7.57;;;3.30;;
16735;SDS011;17990;49.548;9.730;2022-07-29T04:58:48;7.33;;;4.10;;
16735;SDS011;17990;49.548;9.730;2022-07-29T05:01:17;6.33;;;3.43;;
16735;SDS011;17990;49.548;9.730;2022-07-29T05:03:44;5.67;;;3.43;;
16735;SDS011;17990;49.548;9.730;2022-07-29T05:06:11;10.30;;;3.63;;
16735;SDS011;17990;49.548;9.730;2022-07-29T05:08:38;6.10;;;3.03;;
16735;SDS011;17990;49.548;9.730;2022-07-29T05:11:05;6.93;;;2.80;;
16735;SDS011;17990;49.548;9.730;2022-07-29T05:13:32;5.37;;;2.60;;
16735;SDS011;17990;49.548;9.730;2022-07-29T05:15:59;6.00;;;2.60;;
16735;SDS011;17990;49.548;9.730;2022-07-29T05:18:27;5.57;;;2.53;;
16735;SDS011;17990;49.548;9.730;2022-07-29T05:20:54;4.60;;;2.30;;
16735;SDS011;17990;49.548;9.730;2022-07-29T05:23:21;6.53;;;2.57;;
16735;SDS011;17990;49.548;9.730;2022-07-29T05:25:48;4.07;;;2.30;;
16735;SDS011;17990;49.548;9.730;2022-07-29T05:28:15;5.17;;;2.20;;
16735;SDS011;17990;49.548;9.730;2022-07-29T05:30:42;5.83;;;2.40;;
16735;SDS011;17990;49.548;9.730;2022-07-29T05:33:09;4.90;;;2.30;;
16735;SDS011;17990;49.548;9.730;2022-07-29T05:35:37;4.37;;;2.30;;
16735;SDS011;17990;49.548;9.730;2022-07-29T05:38:04;4.90;;;2.20;;
16735;SDS011;17990;49.548;9.730;2022-07-29T05:40:31;8.00;;;2.43;;
16735;SDS011;17990;49.548;9.730;2022-07-29T05:42:59;9.30;;;2.03;;
16735;SDS011;17990;49.548;9.730;2022-07-29T05:45:25;4.57;;;2.10;;
16735;SDS011;17990;49.548;9.730;2022-07-29T05:47:52;8.00;;;2.00;;
16735;SDS011;17990;49.548;9.730;2022-07-29T05:50:19;3.22;;;2.08;;
16735;SDS011;17990;49.548;9.730;2022-07-29T05:52:47;3.33;;;2.10;;
16735;SDS011;17990;49.548;9.730;2022-07-29T05:55:14;4.53;;;2.08;;
16735;SDS011;17990;49.548;9.730;2022-07-29T05:57:41;5.40;;;2.13;;
16735;SDS011;17990;49.548;9.730;2022-07-29T06:00:10;6.85;;;2.30;;
16735;SDS011;17990;49.548;9.730;2022-07-29T06:02:38;5.20;;;1.85;;
16735;SDS011;17990;49.548;9.730;2022-07-29T06:05:05;5.15;;;2.47;;
16735;SDS011;17990;49.548;9.730;2022-07-29T06:07:33;3.40;;;1.90;;
16735;SDS011;17990;49.548;9.730;2022-07-29T06:10:02;5.03;;;2.38;;
16735;SDS011;17990;49.548;9.730;2022-07-29T06:12:29;4.28;;;2.00;;
16735;SDS011;17990;49.548;9.730;2022-07-29T06:14:56;4.53;;;2.10;;
16735;SDS011;17990;49.548;9.730;2022-07-29T06:17:23;4.25;;;1.98;;
16735;SDS011;17990;49.548;9.730;2022-07-29T06:19:50;3.72;;;2.28;;
16735;SDS011;17990;49.548;9.730;2022-07-29T06:22:17;3.90;;;1.88;;
16735;SDS011;17990;49.548;9.730;2022-07-29T06:24:44;5.28;;;2.33;;
16735;SDS011;17990;49.548;9.730;2022-07-29T06:27:12;3.47;;;1.92;;
16735;SDS011;17990;49.548;9.730;2022-07-29T06:29:39;4.53;;;2.45;;
16735;SDS011;17990;49.548;9.730;2022-07-29T06:32:06;4.28;;;2.22;;
16735;SDS011;17990;49.548;9.730;2022-07-29T06:34:34;4.35;;;2.20;;
16735;SDS011;17990;49.548;9.730;2022-07-29T06:37:05;4.47;;;2.25;;
16735;SDS011;17990;49.548;9.730;2022-07-29T06:39:33;6.47;;;2.50;;
16735;SDS011;17990;49.548;9.730;2022-07-29T06:42:01;3.20;;;2.13;;
16735;SDS011;17990;49.548;9.730;2022-07-29T06:44:29;3.75;;;2.40;;
16735;SDS011;17990;49.548;9.730;2022-07-29T06:46:56;7.07;;;2.45;;
16735;SDS011;17990;49.548;9.730;2022-07-29T06:49:23;4.13;;;2.10;;
16735;SDS011;17990;49.548;9.730;2022-07-29T06:51:51;3.33;;;2.05;;
16735;SDS011;17990;49.548;9.730;2022-07-29T06:54:17;6.13;;;2.42;;
16735;SDS011;17990;49.548;9.730;2022-07-29T06:56:45;4.50;;;2.40;;
16735;SDS011;17990;49.548;9.730;2022-07-29T06:59:12;9.18;;;2.40;;
16735;SDS011;17990;49.548;9.730;2022-07-29T07:01:41;7.03;;;2.22;;
16735;SDS011;17990;49.548;9.730;2022-07-29T07:04:09;8.55;;;2.58;;
16735;SDS011;17990;49.548;9.730;2022-07-29T07:06:37;3.97;;;2.40;;
16735;SDS011;17990;49.548;9.730;2022-07-29T07:09:04;3.67;;;2.10;;
16735;SDS011;17990;49.548;9.730;2022-07-29T07:11:31;7.63;;;2.40;;
16735;SDS011;17990;49.548;9.730;2022-07-29T07:13:57;4.28;;;2.20;;
16735;SDS011;17990;49.548;9.730;2022-07-29T07:16:24;4.35;;;2.50;;
16735;SDS011;17990;49.548;9.730;2022-07-29T07:18:53;4.70;;;2.30;;
16735;SDS011;17990;49.548;9.730;2022-07-29T07:21:19;3.55;;;2.15;;
16735;SDS011;17990;49.548;9.730;2022-07-29T07:23:46;3.70;;;2.25;;
16735;SDS011;17990;49.548;9.730;2022-07-29T07:26:13;6.40;;;2.10;;
16735;SDS011;17990;49.548;9.730;2022-07-29T07:28:40;5.50;;;2.65;;
16735;SDS011;17990;49.548;9.730;2022-07-29T07:31:07;3.67;;;1.95;;
16735;SDS011;17990;49.548;9.730;2022-07-29T07:33:34;2.58;;;1.92;;
16735;SDS011;17990;49.548;9.730;2022-07-29T07:36:02;5.40;;;2.30;;
16735;SDS011;17990;49.548;9.730;2022-07-29T07:38:29;6.15;;;2.15;;
16735;SDS011;17990;49.548;9.730;2022-07-29T07:40:56;3.72;;;2.10;;
16735;SDS011;17990;49.548;9.730;2022-07-29T07:43:23;4.82;;;2.20;;
16735;SDS011;17990;49.548;9.730;2022-07-29T07:45:50;4.88;;;2.13;;
16735;SDS011;17990;49.548;9.730;2022-07-29T07:48:17;4.85;;;2.00;;
16735;SDS011;17990;49.548;9.730;2022-07-29T07:50:43;5.85;;;2.30;;
16735;SDS011;17990;49.548;9.730;2022-07-29T07:53:12;7.55;;;2.80;;
16735;SDS011;17990;49.548;9.730;2022-07-29T07:55:39;4.95;;;2.38;;
16735;SDS011;17990;49.548;9.730;2022-07-29T07:58:07;4.47;;;2.00;;
16735;SDS011;17990;49.548;9.730;2022-07-29T08:00:34;8.63;;;2.25;;
16735;SDS011;17990;49.548;9.730;2022-07-29T08:03:01;3.58;;;2.10;;
16735;SDS011;17990;49.548;9.730;2022-07-29T08:05:28;5.88;;;2.70;;
16735;SDS011;17990;49.548;9.730;2022-07-29T08:07:55;4.47;;;2.40;;
16735;SDS011;17990;49.548;9.730;2022-07-29T08:10:23;4.47;;;2.28;;
16735;SDS011;17990;49.548;9.730;2022-07-29T08:13:08;3.90;;;2.40;;
16735;SDS011;17990;49.548;9.730;2022-07-29T08:15:38;2.90;;;1.92;;
16735;SDS011;17990;49.548;9.730;2022-07-29T08:18:08;3.80;;;2.08;;
16735;SDS011;17990;49.548;9.730;2022-07-29T08:20:35;3.15;;;1.95;;
16735;SDS011;17990;49.548;9.730;2022-07-29T08:23:03;3.78;;;1.92;;
16735;SDS011;17990;49.548;9.730;2022-07-29T08:25:32;5.80;;;2.15;;
16735;SDS011;17990;49.548;9.730;2022-07-29T08:27:59;7.15;;;2.72;;
16735;SDS011;17990;49.548;9.730;2022-07-29T08:30:26;2.88;;;1.90;;
16735;SDS011;17990;49.548;9.730;2022-07-29T08:32:53;5.43;;;2.75;;
16735;SDS011;17990;49.548;9.730;2022-07-29T08:35:20;4.47;;;2.03;;
16735;SDS011;17990;49.548;9.730;2022-07-29T08:37:48;2.35;;;1.77;;
16735;SDS011;17990;49.548;9.730;2022-07-29T08:40:15;8.80;;;2.70;;
16735;SDS011;17990;49.548;9.730;2022-07-29T08:42:43;2.88;;;2.08;;
16735;SDS011;17990;49.548;9.730;2022-07-29T08:45:11;4.57;;;2.17;;
16735;SDS011;17990;49.548;9.730;2022-07-29T08:47:38;4.75;;;2.20;;
16735;SDS011;17990;49.548;9.730;2022-07-29T08:50:05;3.92;;;2.15;;
16735;SDS011;17990;49.548;9.730;2022-07-29T08:52:35;3.92;;;2.03;;
16735;SDS011;17990;49.548;9.730;2022-07-29T08:55:06;5.80;;;2.55;;
16735;SDS011;17990;49.548;9.730;2022-07-29T08:57:35;4.68;;;1.98;;
16735;SDS011;17990;49.548;9.730;2022-07-29T09:00:07;2.58;;;1.90;;
16735;SDS011;17990;49.548;9.730;2022-07-29T09:02:37;5.20;;;2.25;;
16735;SDS011;17990;49.548;9.730;2022-07-29T09:05:07;5.40;;;2.10;;
16735;SDS011;17990;49.548;9.730;2022-07-29T09:07:34;6.35;;;2.55;;
16735;SDS011;17990;49.548;9.730;2022-07-29T09:10:02;6.70;;;2.40;;
16735;SDS011;17990;49.548;9.730;2022-07-29T09:12:31;4.53;;;2.50;;
16735;SDS011;17990;49.548;9.730;2022-07-29T09:14:58;3.20;;;1.90;;
16735;SDS011;17990;49.548;9.730;2022-07-29T09:17:43;2.78;;;1.80;;
16735;SDS011;17990;49.548;9.730;2022-07-29T09:20:12;2.90;;;1.92;;
16735;SDS011;17990;49.548;9.730;2022-07-29T09:22:42;4.78;;;2.05;;
16735;SDS011;17990;49.548;9.730;2022-07-29T09:25:11;3.25;;;1.70;;
16735;SDS011;17990;49.548;9.730;2022-07-29T09:27:38;8.18;;;2.10;;
16735;SDS011;17990;49.548;9.730;2022-07-29T09:30:05;7.50;;;2.22;;
16735;SDS011;17990;49.548;9.730;2022-07-29T09:35:24;3.83;;;1.70;;
16735;SDS011;17990;49.548;9.730;2022-07-29T09:37:52;2.42;;;1.88;;
16735;SDS011;17990;49.548;9.730;2022-07-29T09:40:21;4.35;;;1.92;;
16735;SDS011;17990;49.548;9.730;2022-07-29T09:42:50;5.60;;;1.90;;
16735;SDS011;17990;49.548;9.730;2022-07-29T09:45:27;3.67;;;1.83;;
16735;SDS011;17990;49.548;9.730;2022-07-29T09:47:57;2.72;;;1.85;;
16735;SDS011;17990;49.548;9.730;2022-07-29T09:50:34;4.88;;;2.00;;
16735;SDS011;17990;49.548;9.730;2022-07-29T09:53:03;3.33;;;2.10;;
16735;SDS011;17990;49.548;9.730;2022-07-29T09:55:30;4.22;;;1.60;;
16735;SDS011;17990;49.548;9.730;2022-07-29T10:00:43;3.47;;;1.80;;
16735;SDS011;17990;49.548;9.730;2022-07-29T10:03:13;2.17;;;1.70;;
16735;SDS011;17990;49.548;9.730;2022-07-29T10:05:42;4.28;;;1.58;;
16735;SDS011;17990;49.548;9.730;2022-07-29T10:08:10;8.18;;;2.17;;
16735;SDS011;17990;49.548;9.730;2022-07-29T10:10:38;5.32;;;2.13;;
16735;SDS011;17990;49.548;9.730;2022-07-29T10:13:07;4.70;;;2.00;;
16735;SDS011;17990;49.548;9.730;2022-07-29T10:15:37;3.88;;;1.88;;
16735;SDS011;17990;49.548;9.730;2022-07-29T10:18:08;4.70;;;2.13;;
16735;SDS011;17990;49.548;9.730;2022-07-29T10:20:38;3.50;;;2.20;;
16735;SDS011;17990;49.548;9.730;2022-07-29T10:23:05;2.38;;;1.90;;
16735;SDS011;17990;49.548;9.730;2022-07-29T10:25:32;4.82;;;1.80;;
16735;SDS011;17990;49.548;9.730;2022-07-29T10:27:59;5.05;;;1.92;;
16735;SDS011;17990;49.548;9.730;2022-07-29T10:30:26;4.35;;;1.73;;
16735;SDS011;17990;49.548;9.730;2022-07-29T10:36:04;3.88;;;1.70;;
16735;SDS011;17990;49.548;9.730;2022-07-29T10:39:04;4.07;;;2.15;;
16735;SDS011;17990;49.548;9.730;2022-07-29T10:44:34;3.50;;;1.90;;
16735;SDS011;17990;49.548;9.730;2022-07-29T10:47:02;2.63;;;1.83;;
16735;SDS011;17990;49.548;9.730;2022-07-29T10:49:30;3.97;;;2.28;;
16735;SDS011;17990;49.548;9.730;2022-07-29T10:52:00;4.80;;;2.08;;
16735;SDS011;17990;49.548;9.730;2022-07-29T10:54:43;3.55;;;1.95;;
16735;SDS011;17990;49.548;9.730;2022-07-29T10:57:15;4.03;;;1.88;;
16735;SDS011;17990;49.548;9.730;2022-07-29T10:59:50;2.08;;;1.70;;
16735;SDS011;17990;49.548;9.730;2022-07-29T11:02:56;1.95;;;1.75;;
16735;SDS011;17990;49.548;9.730;2022-07-29T11:05:24;4.43;;;1.92;;
16735;SDS011;17990;49.548;9.730;2022-07-29T11:10:48;5.97;;;1.95;;
16735;SDS011;17990;49.548;9.730;2022-07-29T11:16:19;3.55;;;2.10;;
16735;SDS011;17990;49.548;9.730;2022-07-29T11:21:47;6.25;;;2.15;;
16735;SDS011;17990;49.548;9.730;2022-07-29T11:24:17;2.85;;;2.17;;
16735;SDS011;17990;49.548;9.730;2022-07-29T11:29:47;3.88;;;1.63;;
16735;SDS011;17990;49.548;9.730;2022-07-29T11:32:17;3.78;;;1.75;;
16735;SDS011;17990;49.548;9.730;2022-07-29T11:34:45;4.25;;;2.25;;
16735;SDS011;17990;49.548;9.730;2022-07-29T11:37:17;5.28;;;1.85;;
16735;SDS011;17990;49.548;9.730;2022-07-29T11:40:07;7.45;;;2.10;;
16735;SDS011;17990;49.548;9.730;2022-07-29T11:42:41;4.63;;;2.28;;
16735;SDS011;17990;49.548;9.730;2022-07-29T11:45:11;5.10;;;1.95;;
16735;SDS011;17990;49.548;9.730;2022-07-29T11:47:53;3.10;;;2.05;;
16735;SDS011;17990;49.548;9.730;2022-07-29T11:50:30;2.63;;;1.75;;
16735;SDS011;17990;49.548;9.730;2022-07-29T11:53:02;5.05;;;2.10;;
16735;SDS011;17990;49.548;9.730;2022-07-29T11:55:38;3.95;;;2.10;;
16735;SDS011;17990;49.548;9.730;2022-07-29T11:58:06;4.10;;;1.92;;
16735;SDS011;17990;49.548;9.730;2022-07-29T12:00:34;2.42;;;1.85;;
16735;SDS011;17990;49.548;9.730;2022-07-29T12:03:04;5.50;;;1.98;;
16735;SDS011;17990;49.548;9.730;2022-07-29T12:05:35;3.47;;;2.30;;
16735;SDS011;17990;49.548;9.730;2022-07-29T12:08:06;4.20;;;2.50;;
16735;SDS011;17990;49.548;9.730;2022-07-29T12:10:38;4.57;;;2.30;;
16735;SDS011;17990;49.548;9.730;2022-07-29T12:13:06;5.03;;;2.05;;
16735;SDS011;17990;49.548;9.730;2022-07-29T12:15:34;3.13;;;1.80;;
16735;SDS011;17990;49.548;9.730;2022-07-29T12:18:14;2.83;;;1.90;;
16735;SDS011;17990;49.548;9.730;2022-07-29T12:20:43;3.97;;;2.42;;
16735;SDS011;17990;49.548;9.730;2022-07-29T12:23:11;3.58;;;1.95;;
16735;SDS011;17990;49.548;9.730;2022-07-29T12:25:41;3.22;;;2.10;;
16735;SDS011;17990;49.548;9.730;2022-07-29T12:28:10;2.25;;;2.00;;
16735;SDS011;17990;49.548;9.730;2022-07-29T12:30:42;4.88;;;1.92;;
16735;SDS011;17990;49.548;9.730;2022-07-29T12:33:12;2.67;;;1.80;;
16735;SDS011;17990;49.548;9.730;2022-07-29T12:35:42;2.88;;;1.90;;
16735;SDS011;17990;49.548;9.730;2022-07-29T12:38:11;4.32;;;1.77;;
16735;SDS011;17990;49.548;9.730;2022-07-29T12:40:41;4.13;;;2.00;;
16735;SDS011;17990;49.548;9.730;2022-07-29T12:43:10;2.42;;;1.77;;
16735;SDS011;17990;49.548;9.730;2022-07-29T12:45:41;5.22;;;1.95;;
16735;SDS011;17990;49.548;9.730;2022-07-29T12:48:09;8.20;;;2.20;;
16735;SDS011;17990;49.548;9.730;2022-07-29T12:50:51;4.88;;;2.00;;
16735;SDS011;17990;49.548;9.730;2022-07-29T12:53:23;2.22;;;1.70;;
16735;SDS011;17990;49.548;9.730;2022-07-29T12:55:53;4.75;;;2.13;;
16735;SDS011;17990;49.548;9.730;2022-07-29T12:58:28;5.00;;;2.00;;
16735;SDS011;17990;49.548;9.730;2022-07-29T13:01:03;5.32;;;2.10;;
16735;SDS011;17990;49.548;9.730;2022-07-29T13:03:50;9.32;;;2.92;;
16735;SDS011;17990;49.548;9.730;2022-07-29T13:06:32;20.33;;;4.07;;
16735;SDS011;17990;49.548;9.730;2022-07-29T13:09:03;17.45;;;4.50;;
16735;SDS011;17990;49.548;9.730;2022-07-29T13:11:36;11.93;;;4.82;;
16735;SDS011;17990;49.548;9.730;2022-07-29T13:14:05;19.90;;;6.70;;
16735;SDS011;17990;49.548;9.730;2022-07-29T13:16:34;20.13;;;8.45;;
16735;SDS011;17990;49.548;9.730;2022-07-29T13:19:11;17.08;;;8.48;;
16735;SDS011;17990;49.548;9.730;2022-07-29T13:21:38;21.27;;;9.18;;
16735;SDS011;17990;49.548;9.730;2022-07-29T13:24:06;10.57;;;5.47;;
16735;SDS011;17990;49.548;9.730;2022-07-29T13:26:36;12.67;;;6.53;;
16735;SDS011;17990;49.548;9.730;2022-07-29T13:29:06;11.70;;;6.33;;
16735;SDS011;17990;49.548;9.730;2022-07-29T13:31:33;9.13;;;6.53;;
16735;SDS011;17990;49.548;9.730;2022-07-29T13:34:00;13.40;;;6.27;;
16735;SDS011;17990;49.548;9.730;2022-07-29T13:36:27;7.77;;;6.13;;
16735;SDS011;17990;49.548;9.730;2022-07-29T13:38:54;9.20;;;5.38;;
16735;SDS011;17990;49.548;9.730;2022-07-29T13:41:21;8.85;;;5.63;;
16735;SDS011;17990;49.548;9.730;2022-07-29T13:43:49;11.90;;;5.57;;
16735;SDS011;17990;49.548;9.730;2022-07-29T13:46:16;7.35;;;5.53;;
16735;SDS011;17990;49.548;9.730;2022-07-29T13:48:43;10.35;;;5.20;;
16735;SDS011;17990;49.548;9.730;2022-07-29T13:51:09;6.97;;;5.55;;
16735;SDS011;17990;49.548;9.730;2022-07-29T13:53:36;7.20;;;4.95;;
16735;SDS011;17990;49.548;9.730;2022-07-29T13:56:03;6.97;;;4.90;;
16735;SDS011;17990;49.548;9.730;2022-07-29T13:58:31;6.67;;;5.70;;
16735;SDS011;17990;49.548;9.730;2022-07-29T14:01:00;5.63;;;4.22;;
16735;SDS011;17990;49.548;9.730;2022-07-29T14:03:27;6.95;;;4.28;;
16735;SDS011;17990;49.548;9.730;2022-07-29T14:05:54;6.78;;;3.90;;
16735;SDS011;17990;49.548;9.730;2022-07-29T14:08:22;8.55;;;4.57;;
16735;SDS011;17990;49.548;9.730;2022-07-29T14:10:49;6.25;;;4.47;;
16735;SDS011;17990;49.548;9.730;2022-07-29T14:13:16;9.13;;;4.38;;
16735;SDS011;17990;49.548;9.730;2022-07-29T14:15:43;6.05;;;3.90;;
16735;SDS011;17990;49.548;9.730;2022-07-29T14:18:11;7.55;;;3.80;;
16735;SDS011;17990;49.548;9.730;2022-07-29T14:20:38;6.47;;;3.90;;
16735;SDS011;17990;49.548;9.730;2022-07-29T14:23:05;7.13;;;3.88;;
16735;SDS011;17990;49.548;9.730;2022-07-29T14:25:33;5.55;;;3.72;;
16735;SDS011;17990;49.548;9.730;2022-07-29T14:27:59;7.45;;;3.80;;
16735;SDS011;17990;49.548;9.730;2022-07-29T14:30:26;5.85;;;3.67;;
16735;SDS011;17990;49.548;9.730;2022-07-29T14:32:53;4.88;;;3.22;;
16735;SDS011;17990;49.548;9.730;2022-07-29T14:35:21;8.40;;;4.18;;
16735;SDS011;17990;49.548;9.730;2022-07-29T14:37:48;11.90;;;5.00;;
16735;SDS011;17990;49.548;9.730;2022-07-29T14:40:15;8.40;;;4.35;;
16735;SDS011;17990;49.548;9.730;2022-07-29T14:42:42;5.83;;;4.33;;
16735;SDS011;17990;49.548;9.730;2022-07-29T14:45:09;6.72;;;4.72;;
16735;SDS011;17990;49.548;9.730;2022-07-29T14:47:37;7.37;;;4.77;;
16735;SDS011;17990;49.548;9.730;2022-07-29T14:50:05;6.37;;;4.50;;
16735;SDS011;17990;49.548;9.730;2022-07-29T14:52:34;8.30;;;4.13;;
16735;SDS011;17990;49.548;9.730;2022-07-29T14:55:01;5.80;;;4.17;;
16735;SDS011;17990;49.548;9.730;2022-07-29T14:57:29;5.23;;;4.33;;
16735;SDS011;17990;49.548;9.730;2022-07-29T14:59:56;5.07;;;4.40;;
16735;SDS011;17990;49.548;9.730;2022-07-29T15:02:23;8.37;;;5.07;;
16735;SDS011;17990;49.548;9.730;2022-07-29T15:04:50;8.30;;;4.90;;
16735;SDS011;17990;49.548;9.730;2022-07-29T15:07:17;8.97;;;5.30;;
16735;SDS011;17990;49.548;9.730;2022-07-29T15:09:45;6.47;;;4.83;;
16735;SDS011;17990;49.548;9.730;2022-07-29T15:12:12;4.70;;;4.17;;
16735;SDS011;17990;49.548;9.730;2022-07-29T15:14:40;6.00;;;3.50;;
16735;SDS011;17990;49.548;9.730;2022-07-29T15:17:07;5.80;;;3.33;;
16735;SDS011;17990;49.548;9.730;2022-07-29T15:19:34;5.30;;;3.47;;
16735;SDS011;17990;49.548;9.730;2022-07-29T15:22:01;4.83;;;3.07;;
16735;SDS011;17990;49.548;9.730;2022-07-29T15:24:29;5.28;;;3.80;;
16735;SDS011;17990;49.548;9.730;2022-07-29T15:26:58;7.77;;;6.17;;
16735;SDS011;17990;49.548;9.730;2022-07-29T15:29:24;5.05;;;3.80;;